sensor_id;sensor_type;location;lat;lon;timestamp;P1;durP1;ratioP1;P2;durP2;ratioP2
16510;SDS011;8368;48.772;8.754;2023-04-15T00:01:21;0.60;;;0.60;;
16510;SDS011;8368;48.772;8.754;2023-04-15T00:03:49;0.60;;;0.60;;
16510;SDS011;8368;48.772;8.754;2023-04-15T00:06:16;0.80;;;0.80;;
16510;SDS011;8368;48.772;8.754;2023-04-15T00:08:43;1.10;;;1.10;;
16510;SDS011;8368;48.772;8.754;2023-04-15T00:11:11;0.80;;;0.80;;
16510;SDS011;8368;48.772;8.754;2023-04-15T00:13:37;2.67;;;0.83;;
16510;SDS011;8368;48.772;8.754;2023-04-15T00:16:04;1.10;;;1.10;;
16510;SDS011;8368;48.772;8.754;2023-04-15T00:18:31;1.23;;;1.10;;
16510;SDS011;8368;48.772;8.754;2023-04-15T00:20:57;1.20;;;0.80;;
16510;SDS011;8368;48.772;8.754;2023-04-15T00:23:23;0.90;;;0.90;;
16510;SDS011;8368;48.772;8.754;2023-04-15T00:25:49;1.40;;;1.30;;
16510;SDS011;8368;48.772;8.754;2023-04-15T00:28:15;0.87;;;0.87;;
16510;SDS011;8368;48.772;8.754;2023-04-15T00:30:41;1.03;;;1.03;;
16510;SDS011;8368;48.772;8.754;2023-04-15T00:33:07;1.13;;;0.87;;
16510;SDS011;8368;48.772;8.754;2023-04-15T00:35:32;1.30;;;1.00;;
16510;SDS011;8368;48.772;8.754;2023-04-15T00:37:58;1.40;;;1.27;;
16510;SDS011;8368;48.772;8.754;2023-04-15T00:40:24;1.00;;;1.00;;
16510;SDS011;8368;48.772;8.754;2023-04-15T00:42:50;2.07;;;1.30;;
16510;SDS011;8368;48.772;8.754;2023-04-15T00:45:16;0.83;;;0.83;;
16510;SDS011;8368;48.772;8.754;2023-04-15T00:47:43;1.27;;;1.17;;
16510;SDS011;8368;48.772;8.754;2023-04-15T00:50:09;0.90;;;0.90;;
16510;SDS011;8368;48.772;8.754;2023-04-15T00:52:36;2.20;;;0.97;;
16510;SDS011;8368;48.772;8.754;2023-04-15T00:55:03;0.97;;;0.97;;
16510;SDS011;8368;48.772;8.754;2023-04-15T00:57:29;0.87;;;0.87;;
16510;SDS011;8368;48.772;8.754;2023-04-15T00:59:55;1.33;;;1.17;;
16510;SDS011;8368;48.772;8.754;2023-04-15T01:02:22;0.80;;;0.80;;
16510;SDS011;8368;48.772;8.754;2023-04-15T01:04:49;0.80;;;0.80;;
16510;SDS011;8368;48.772;8.754;2023-04-15T01:07:15;0.73;;;0.73;;
16510;SDS011;8368;48.772;8.754;2023-04-15T01:09:41;1.60;;;1.20;;
16510;SDS011;8368;48.772;8.754;2023-04-15T01:12:07;1.33;;;1.27;;
16510;SDS011;8368;48.772;8.754;2023-04-15T01:14:35;0.93;;;0.93;;
16510;SDS011;8368;48.772;8.754;2023-04-15T01:17:01;2.87;;;0.90;;
16510;SDS011;8368;48.772;8.754;2023-04-15T01:19:27;0.70;;;0.70;;
16510;SDS011;8368;48.772;8.754;2023-04-15T01:21:52;1.07;;;1.07;;
16510;SDS011;8368;48.772;8.754;2023-04-15T01:24:19;1.10;;;1.10;;
16510;SDS011;8368;48.772;8.754;2023-04-15T01:26:45;0.93;;;0.70;;
16510;SDS011;8368;48.772;8.754;2023-04-15T01:29:11;2.23;;;1.13;;
16510;SDS011;8368;48.772;8.754;2023-04-15T01:31:37;1.20;;;1.10;;
16510;SDS011;8368;48.772;8.754;2023-04-15T01:34:02;0.90;;;0.90;;
16510;SDS011;8368;48.772;8.754;2023-04-15T01:36:28;1.50;;;1.40;;
16510;SDS011;8368;48.772;8.754;2023-04-15T01:38:54;1.10;;;1.10;;
16510;SDS011;8368;48.772;8.754;2023-04-15T01:41:24;0.80;;;0.80;;
16510;SDS011;8368;48.772;8.754;2023-04-15T01:43:51;0.93;;;0.77;;
16510;SDS011;8368;48.772;8.754;2023-04-15T01:46:16;1.27;;;0.90;;
16510;SDS011;8368;48.772;8.754;2023-04-15T01:48:42;0.87;;;0.87;;
16510;SDS011;8368;48.772;8.754;2023-04-15T01:51:07;0.70;;;0.70;;
16510;SDS011;8368;48.772;8.754;2023-04-15T01:53:33;1.57;;;1.00;;
16510;SDS011;8368;48.772;8.754;2023-04-15T01:55:58;1.03;;;1.03;;
16510;SDS011;8368;48.772;8.754;2023-04-15T01:58:24;1.33;;;0.97;;
16510;SDS011;8368;48.772;8.754;2023-04-15T02:00:50;1.03;;;1.03;;
16510;SDS011;8368;48.772;8.754;2023-04-15T02:03:15;6.60;;;1.23;;
16510;SDS011;8368;48.772;8.754;2023-04-15T02:05:41;0.97;;;0.97;;
16510;SDS011;8368;48.772;8.754;2023-04-15T02:08:06;1.23;;;1.23;;
16510;SDS011;8368;48.772;8.754;2023-04-15T02:10:33;1.10;;;1.10;;
16510;SDS011;8368;48.772;8.754;2023-04-15T02:12:59;0.80;;;0.80;;
16510;SDS011;8368;48.772;8.754;2023-04-15T02:15:25;1.27;;;1.17;;
16510;SDS011;8368;48.772;8.754;2023-04-15T02:17:50;1.43;;;1.33;;
16510;SDS011;8368;48.772;8.754;2023-04-15T02:20:17;1.17;;;1.13;;
16510;SDS011;8368;48.772;8.754;2023-04-15T02:22:43;7.17;;;1.30;;
16510;SDS011;8368;48.772;8.754;2023-04-15T02:25:09;1.07;;;1.07;;
16510;SDS011;8368;48.772;8.754;2023-04-15T02:27:35;0.73;;;0.73;;
16510;SDS011;8368;48.772;8.754;2023-04-15T02:30:01;1.30;;;1.30;;
16510;SDS011;8368;48.772;8.754;2023-04-15T02:32:27;1.03;;;1.00;;
16510;SDS011;8368;48.772;8.754;2023-04-15T02:34:53;1.03;;;0.97;;
16510;SDS011;8368;48.772;8.754;2023-04-15T02:37:18;0.90;;;0.90;;
16510;SDS011;8368;48.772;8.754;2023-04-15T02:39:44;1.00;;;1.00;;
16510;SDS011;8368;48.772;8.754;2023-04-15T02:42:10;1.27;;;1.23;;
16510;SDS011;8368;48.772;8.754;2023-04-15T02:44:37;0.80;;;0.80;;
16510;SDS011;8368;48.772;8.754;2023-04-15T02:47:02;3.40;;;1.10;;
16510;SDS011;8368;48.772;8.754;2023-04-15T02:49:30;1.03;;;0.90;;
16510;SDS011;8368;48.772;8.754;2023-04-15T02:51:56;0.93;;;0.93;;
16510;SDS011;8368;48.772;8.754;2023-04-15T02:54:22;7.33;;;1.00;;
16510;SDS011;8368;48.772;8.754;2023-04-15T02:56:47;0.70;;;0.70;;
16510;SDS011;8368;48.772;8.754;2023-04-15T02:59:14;0.70;;;0.70;;
16510;SDS011;8368;48.772;8.754;2023-04-15T03:01:39;0.73;;;0.73;;
16510;SDS011;8368;48.772;8.754;2023-04-15T03:04:05;4.20;;;1.00;;
16510;SDS011;8368;48.772;8.754;2023-04-15T03:06:32;0.93;;;0.70;;
16510;SDS011;8368;48.772;8.754;2023-04-15T03:08:58;1.00;;;0.90;;
16510;SDS011;8368;48.772;8.754;2023-04-15T03:11:24;5.93;;;0.83;;
16510;SDS011;8368;48.772;8.754;2023-04-15T03:13:51;0.80;;;0.80;;
16510;SDS011;8368;48.772;8.754;2023-04-15T03:16:16;1.87;;;0.60;;
16510;SDS011;8368;48.772;8.754;2023-04-15T03:18:42;0.90;;;0.90;;
16510;SDS011;8368;48.772;8.754;2023-04-15T03:21:08;0.70;;;0.70;;
16510;SDS011;8368;48.772;8.754;2023-04-15T03:23:33;1.13;;;1.07;;
16510;SDS011;8368;48.772;8.754;2023-04-15T03:26:02;0.70;;;0.70;;
16510;SDS011;8368;48.772;8.754;2023-04-15T03:28:28;1.33;;;1.20;;
16510;SDS011;8368;48.772;8.754;2023-04-15T03:30:55;0.90;;;0.90;;
16510;SDS011;8368;48.772;8.754;2023-04-15T03:33:20;1.03;;;1.03;;
16510;SDS011;8368;48.772;8.754;2023-04-15T03:35:46;0.87;;;0.87;;
16510;SDS011;8368;48.772;8.754;2023-04-15T03:38:11;0.80;;;0.80;;
16510;SDS011;8368;48.772;8.754;2023-04-15T03:40:37;0.93;;;0.93;;
16510;SDS011;8368;48.772;8.754;2023-04-15T03:43:05;0.90;;;0.90;;
16510;SDS011;8368;48.772;8.754;2023-04-15T03:45:30;0.93;;;0.93;;
16510;SDS011;8368;48.772;8.754;2023-04-15T03:47:56;0.90;;;0.90;;
16510;SDS011;8368;48.772;8.754;2023-04-15T03:50:22;1.23;;;1.13;;
16510;SDS011;8368;48.772;8.754;2023-04-15T03:52:47;1.03;;;1.03;;
16510;SDS011;8368;48.772;8.754;2023-04-15T03:55:13;0.90;;;0.90;;
16510;SDS011;8368;48.772;8.754;2023-04-15T03:57:39;1.00;;;1.00;;
16510;SDS011;8368;48.772;8.754;2023-04-15T04:00:05;0.70;;;0.70;;
16510;SDS011;8368;48.772;8.754;2023-04-15T04:02:33;0.90;;;0.90;;
16510;SDS011;8368;48.772;8.754;2023-04-15T04:04:59;0.40;;;0.40;;
16510;SDS011;8368;48.772;8.754;2023-04-15T04:07:25;1.80;;;1.00;;
16510;SDS011;8368;48.772;8.754;2023-04-15T04:09:50;0.87;;;0.87;;
16510;SDS011;8368;48.772;8.754;2023-04-15T04:12:16;0.90;;;0.90;;
16510;SDS011;8368;48.772;8.754;2023-04-15T04:14:41;1.07;;;1.07;;
16510;SDS011;8368;48.772;8.754;2023-04-15T04:17:07;1.30;;;1.20;;
16510;SDS011;8368;48.772;8.754;2023-04-15T04:19:33;1.17;;;0.73;;
16510;SDS011;8368;48.772;8.754;2023-04-15T04:21:58;0.83;;;0.83;;
16510;SDS011;8368;48.772;8.754;2023-04-15T04:24:24;0.87;;;0.87;;
16510;SDS011;8368;48.772;8.754;2023-04-15T04:26:50;1.07;;;1.03;;
16510;SDS011;8368;48.772;8.754;2023-04-15T04:29:15;1.00;;;1.00;;
16510;SDS011;8368;48.772;8.754;2023-04-15T04:31:41;1.47;;;1.30;;
16510;SDS011;8368;48.772;8.754;2023-04-15T04:34:06;0.90;;;0.90;;
16510;SDS011;8368;48.772;8.754;2023-04-15T04:36:32;1.50;;;0.80;;
16510;SDS011;8368;48.772;8.754;2023-04-15T04:38:57;0.80;;;0.80;;
16510;SDS011;8368;48.772;8.754;2023-04-15T04:41:23;1.43;;;1.33;;
16510;SDS011;8368;48.772;8.754;2023-04-15T04:43:48;2.17;;;1.97;;
16510;SDS011;8368;48.772;8.754;2023-04-15T04:46:14;1.20;;;1.20;;
16510;SDS011;8368;48.772;8.754;2023-04-15T04:48:39;1.00;;;1.00;;
16510;SDS011;8368;48.772;8.754;2023-04-15T04:51:05;2.33;;;1.10;;
16510;SDS011;8368;48.772;8.754;2023-04-15T04:53:31;1.00;;;1.00;;
16510;SDS011;8368;48.772;8.754;2023-04-15T04:55:57;1.27;;;1.17;;
16510;SDS011;8368;48.772;8.754;2023-04-15T04:58:23;1.00;;;1.00;;
16510;SDS011;8368;48.772;8.754;2023-04-15T05:00:48;0.83;;;0.83;;
16510;SDS011;8368;48.772;8.754;2023-04-15T05:03:15;0.83;;;0.83;;
16510;SDS011;8368;48.772;8.754;2023-04-15T05:05:40;1.33;;;1.17;;
16510;SDS011;8368;48.772;8.754;2023-04-15T05:08:06;1.23;;;1.23;;
16510;SDS011;8368;48.772;8.754;2023-04-15T05:10:31;0.80;;;0.80;;
16510;SDS011;8368;48.772;8.754;2023-04-15T05:12:57;3.03;;;0.97;;
16510;SDS011;8368;48.772;8.754;2023-04-15T05:15:23;1.17;;;1.17;;
16510;SDS011;8368;48.772;8.754;2023-04-15T05:17:48;0.97;;;0.97;;
16510;SDS011;8368;48.772;8.754;2023-04-15T05:20:14;0.87;;;0.87;;
16510;SDS011;8368;48.772;8.754;2023-04-15T05:22:39;0.70;;;0.70;;
16510;SDS011;8368;48.772;8.754;2023-04-15T05:25:05;1.53;;;0.87;;
16510;SDS011;8368;48.772;8.754;2023-04-15T05:27:31;0.77;;;0.77;;
16510;SDS011;8368;48.772;8.754;2023-04-15T05:29:57;0.73;;;0.73;;
16510;SDS011;8368;48.772;8.754;2023-04-15T05:32:22;0.97;;;0.97;;
16510;SDS011;8368;48.772;8.754;2023-04-15T05:34:48;1.00;;;1.00;;
16510;SDS011;8368;48.772;8.754;2023-04-15T05:37:13;1.07;;;1.07;;
16510;SDS011;8368;48.772;8.754;2023-04-15T05:39:39;1.20;;;1.20;;
16510;SDS011;8368;48.772;8.754;2023-04-15T05:42:05;2.57;;;1.73;;
16510;SDS011;8368;48.772;8.754;2023-04-15T05:44:30;1.10;;;1.10;;
16510;SDS011;8368;48.772;8.754;2023-04-15T05:46:56;1.83;;;1.73;;
16510;SDS011;8368;48.772;8.754;2023-04-15T05:49:22;1.33;;;1.23;;
16510;SDS011;8368;48.772;8.754;2023-04-15T05:51:48;1.10;;;1.10;;
16510;SDS011;8368;48.772;8.754;2023-04-15T05:54:13;0.87;;;0.87;;
16510;SDS011;8368;48.772;8.754;2023-04-15T05:56:39;0.97;;;0.97;;
16510;SDS011;8368;48.772;8.754;2023-04-15T05:59:05;2.00;;;0.90;;
16510;SDS011;8368;48.772;8.754;2023-04-15T06:01:30;1.13;;;1.13;;
16510;SDS011;8368;48.772;8.754;2023-04-15T06:03:57;1.50;;;1.20;;
16510;SDS011;8368;48.772;8.754;2023-04-15T06:06:23;1.33;;;1.33;;
16510;SDS011;8368;48.772;8.754;2023-04-15T06:08:49;1.77;;;1.67;;
16510;SDS011;8368;48.772;8.754;2023-04-15T06:11:14;4.10;;;2.10;;
16510;SDS011;8368;48.772;8.754;2023-04-15T06:13:40;1.53;;;1.23;;
16510;SDS011;8368;48.772;8.754;2023-04-15T06:16:06;1.50;;;1.43;;
16510;SDS011;8368;48.772;8.754;2023-04-15T06:18:31;1.37;;;1.27;;
16510;SDS011;8368;48.772;8.754;2023-04-15T06:20:57;1.63;;;1.53;;
16510;SDS011;8368;48.772;8.754;2023-04-15T06:23:23;1.70;;;1.40;;
16510;SDS011;8368;48.772;8.754;2023-04-15T06:25:48;1.93;;;1.60;;
16510;SDS011;8368;48.772;8.754;2023-04-15T06:28:14;1.50;;;1.40;;
16510;SDS011;8368;48.772;8.754;2023-04-15T06:30:39;1.30;;;1.30;;
16510;SDS011;8368;48.772;8.754;2023-04-15T06:33:05;1.20;;;1.20;;
16510;SDS011;8368;48.772;8.754;2023-04-15T06:35:31;1.67;;;1.57;;
16510;SDS011;8368;48.772;8.754;2023-04-15T06:37:56;1.40;;;1.20;;
16510;SDS011;8368;48.772;8.754;2023-04-15T06:40:22;0.90;;;0.90;;
16510;SDS011;8368;48.772;8.754;2023-04-15T06:42:48;1.33;;;1.33;;
16510;SDS011;8368;48.772;8.754;2023-04-15T06:45:13;3.93;;;1.30;;
16510;SDS011;8368;48.772;8.754;2023-04-15T06:47:39;7.00;;;1.10;;
16510;SDS011;8368;48.772;8.754;2023-04-15T06:50:06;1.97;;;1.87;;
16510;SDS011;8368;48.772;8.754;2023-04-15T06:52:33;2.60;;;2.40;;
16510;SDS011;8368;48.772;8.754;2023-04-15T06:54:59;2.37;;;2.13;;
16510;SDS011;8368;48.772;8.754;2023-04-15T06:57:25;2.27;;;2.07;;
16510;SDS011;8368;48.772;8.754;2023-04-15T06:59:52;2.23;;;1.97;;
16510;SDS011;8368;48.772;8.754;2023-04-15T07:02:18;1.40;;;1.30;;
16510;SDS011;8368;48.772;8.754;2023-04-15T07:04:44;2.03;;;1.87;;
16510;SDS011;8368;48.772;8.754;2023-04-15T07:07:10;1.60;;;1.50;;
16510;SDS011;8368;48.772;8.754;2023-04-15T07:09:36;1.23;;;1.23;;
16510;SDS011;8368;48.772;8.754;2023-04-15T07:12:02;2.80;;;2.07;;
16510;SDS011;8368;48.772;8.754;2023-04-15T07:14:28;1.33;;;1.23;;
16510;SDS011;8368;48.772;8.754;2023-04-15T07:16:54;1.67;;;1.57;;
16510;SDS011;8368;48.772;8.754;2023-04-15T07:19:19;1.90;;;1.80;;
16510;SDS011;8368;48.772;8.754;2023-04-15T07:21:45;1.33;;;1.20;;
16510;SDS011;8368;48.772;8.754;2023-04-15T07:24:11;1.33;;;1.20;;
16510;SDS011;8368;48.772;8.754;2023-04-15T07:26:40;1.27;;;1.27;;
16510;SDS011;8368;48.772;8.754;2023-04-15T07:29:06;1.40;;;0.90;;
16510;SDS011;8368;48.772;8.754;2023-04-15T07:31:31;1.00;;;1.00;;
16510;SDS011;8368;48.772;8.754;2023-04-15T07:33:57;2.10;;;1.10;;
16510;SDS011;8368;48.772;8.754;2023-04-15T07:36:23;1.37;;;1.20;;
16510;SDS011;8368;48.772;8.754;2023-04-15T07:38:49;0.93;;;0.93;;
16510;SDS011;8368;48.772;8.754;2023-04-15T07:41:14;1.30;;;0.83;;
16510;SDS011;8368;48.772;8.754;2023-04-15T07:43:40;0.93;;;0.70;;
16510;SDS011;8368;48.772;8.754;2023-04-15T07:46:05;1.33;;;0.97;;
16510;SDS011;8368;48.772;8.754;2023-04-15T07:48:31;1.40;;;0.90;;
16510;SDS011;8368;48.772;8.754;2023-04-15T07:50:56;3.40;;;1.10;;
16510;SDS011;8368;48.772;8.754;2023-04-15T07:53:22;1.43;;;0.83;;
16510;SDS011;8368;48.772;8.754;2023-04-15T07:55:48;0.90;;;0.90;;
16510;SDS011;8368;48.772;8.754;2023-04-15T07:58:13;0.90;;;0.90;;
16510;SDS011;8368;48.772;8.754;2023-04-15T08:00:39;1.07;;;0.97;;
16510;SDS011;8368;48.772;8.754;2023-04-15T08:03:05;1.03;;;1.03;;
16510;SDS011;8368;48.772;8.754;2023-04-15T08:05:31;0.83;;;0.83;;
16510;SDS011;8368;48.772;8.754;2023-04-15T08:07:57;0.70;;;0.70;;
16510;SDS011;8368;48.772;8.754;2023-04-15T08:10:22;2.03;;;0.77;;
16510;SDS011;8368;48.772;8.754;2023-04-15T08:12:48;0.60;;;0.60;;
16510;SDS011;8368;48.772;8.754;2023-04-15T08:15:14;2.90;;;1.40;;
16510;SDS011;8368;48.772;8.754;2023-04-15T08:17:40;0.70;;;0.70;;
16510;SDS011;8368;48.772;8.754;2023-04-15T08:20:06;0.60;;;0.60;;
16510;SDS011;8368;48.772;8.754;2023-04-15T08:22:31;1.10;;;1.10;;
16510;SDS011;8368;48.772;8.754;2023-04-15T08:24:57;1.27;;;1.17;;
16510;SDS011;8368;48.772;8.754;2023-04-15T08:27:23;0.60;;;0.60;;
16510;SDS011;8368;48.772;8.754;2023-04-15T08:29:49;1.33;;;1.00;;
16510;SDS011;8368;48.772;8.754;2023-04-15T08:32:14;1.33;;;0.70;;
16510;SDS011;8368;48.772;8.754;2023-04-15T08:34:40;0.83;;;0.70;;
16510;SDS011;8368;48.772;8.754;2023-04-15T08:37:06;0.73;;;0.73;;
16510;SDS011;8368;48.772;8.754;2023-04-15T08:39:32;2.07;;;1.63;;
16510;SDS011;8368;48.772;8.754;2023-04-15T08:42:01;3.83;;;2.53;;
16510;SDS011;8368;48.772;8.754;2023-04-15T08:44:31;4.13;;;3.07;;
16510;SDS011;8368;48.772;8.754;2023-04-15T08:47:01;1.50;;;1.40;;
16510;SDS011;8368;48.772;8.754;2023-04-15T08:49:27;1.27;;;1.10;;
16510;SDS011;8368;48.772;8.754;2023-04-15T08:51:54;1.53;;;1.43;;
16510;SDS011;8368;48.772;8.754;2023-04-15T08:54:22;0.90;;;0.90;;
16510;SDS011;8368;48.772;8.754;2023-04-15T08:56:47;1.53;;;1.43;;
16510;SDS011;8368;48.772;8.754;2023-04-15T08:59:13;1.13;;;0.80;;
16510;SDS011;8368;48.772;8.754;2023-04-15T09:01:40;0.80;;;0.80;;
16510;SDS011;8368;48.772;8.754;2023-04-15T09:04:06;0.97;;;0.80;;
16510;SDS011;8368;48.772;8.754;2023-04-15T09:06:32;0.80;;;0.80;;
16510;SDS011;8368;48.772;8.754;2023-04-15T09:08:58;2.33;;;1.00;;
16510;SDS011;8368;48.772;8.754;2023-04-15T09:11:23;1.57;;;1.00;;
16510;SDS011;8368;48.772;8.754;2023-04-15T09:13:49;0.70;;;0.70;;
16510;SDS011;8368;48.772;8.754;2023-04-15T09:16:15;0.90;;;0.90;;
16510;SDS011;8368;48.772;8.754;2023-04-15T09:18:41;0.80;;;0.70;;
16510;SDS011;8368;48.772;8.754;2023-04-15T09:21:08;0.70;;;0.70;;
16510;SDS011;8368;48.772;8.754;2023-04-15T09:23:36;2.13;;;0.97;;
16510;SDS011;8368;48.772;8.754;2023-04-15T09:26:02;1.40;;;0.90;;
16510;SDS011;8368;48.772;8.754;2023-04-15T09:28:29;1.07;;;1.07;;
16510;SDS011;8368;48.772;8.754;2023-04-15T09:30:56;1.53;;;1.07;;
16510;SDS011;8368;48.772;8.754;2023-04-15T09:33:26;1.27;;;1.20;;
16510;SDS011;8368;48.772;8.754;2023-04-15T09:35:59;0.93;;;0.93;;
16510;SDS011;8368;48.772;8.754;2023-04-15T09:38:26;1.00;;;1.00;;
16510;SDS011;8368;48.772;8.754;2023-04-15T09:40:52;1.60;;;0.90;;
16510;SDS011;8368;48.772;8.754;2023-04-15T09:43:17;0.77;;;0.77;;
16510;SDS011;8368;48.772;8.754;2023-04-15T09:45:47;1.03;;;0.93;;
16510;SDS011;8368;48.772;8.754;2023-04-15T09:48:18;0.90;;;0.90;;
16510;SDS011;8368;48.772;8.754;2023-04-15T09:50:45;1.40;;;0.90;;
16510;SDS011;8368;48.772;8.754;2023-04-15T09:53:16;1.23;;;0.90;;
16510;SDS011;8368;48.772;8.754;2023-04-15T09:55:49;2.17;;;0.80;;
16510;SDS011;8368;48.772;8.754;2023-04-15T09:58:23;1.00;;;1.00;;
16510;SDS011;8368;48.772;8.754;2023-04-15T10:00:51;0.90;;;0.90;;
16510;SDS011;8368;48.772;8.754;2023-04-15T10:03:19;1.00;;;1.00;;
16510;SDS011;8368;48.772;8.754;2023-04-15T10:05:49;1.20;;;0.88;;
16510;SDS011;8368;48.772;8.754;2023-04-15T10:08:17;2.40;;;1.27;;
16510;SDS011;8368;48.772;8.754;2023-04-15T10:10:45;0.80;;;0.80;;
16510;SDS011;8368;48.772;8.754;2023-04-15T10:13:13;0.85;;;0.85;;
16510;SDS011;8368;48.772;8.754;2023-04-15T10:15:41;1.02;;;1.02;;
16510;SDS011;8368;48.772;8.754;2023-04-15T10:18:10;1.48;;;1.05;;
16510;SDS011;8368;48.772;8.754;2023-04-15T10:20:39;1.00;;;1.00;;
16510;SDS011;8368;48.772;8.754;2023-04-15T10:23:06;1.20;;;1.10;;
16510;SDS011;8368;48.772;8.754;2023-04-15T10:25:33;1.10;;;1.10;;
16510;SDS011;8368;48.772;8.754;2023-04-15T10:28:00;1.15;;;1.15;;
16510;SDS011;8368;48.772;8.754;2023-04-15T10:30:27;1.10;;;1.10;;
16510;SDS011;8368;48.772;8.754;2023-04-15T10:32:53;2.10;;;1.27;;
16510;SDS011;8368;48.772;8.754;2023-04-15T10:35:20;1.17;;;1.17;;
16510;SDS011;8368;48.772;8.754;2023-04-15T10:37:47;1.10;;;1.10;;
16510;SDS011;8368;48.772;8.754;2023-04-15T10:40:31;1.00;;;1.00;;
16510;SDS011;8368;48.772;8.754;2023-04-15T10:42:58;1.37;;;1.30;;
16510;SDS011;8368;48.772;8.754;2023-04-15T10:45:26;1.20;;;1.20;;
16510;SDS011;8368;48.772;8.754;2023-04-15T10:47:56;2.70;;;1.33;;
16510;SDS011;8368;48.772;8.754;2023-04-15T10:50:26;1.37;;;1.30;;
16510;SDS011;8368;48.772;8.754;2023-04-15T10:52:54;1.43;;;1.33;;
16510;SDS011;8368;48.772;8.754;2023-04-15T10:55:21;1.63;;;1.23;;
16510;SDS011;8368;48.772;8.754;2023-04-15T10:57:57;1.33;;;1.33;;
16510;SDS011;8368;48.772;8.754;2023-04-15T11:00:25;1.03;;;1.03;;
16510;SDS011;8368;48.772;8.754;2023-04-15T11:02:58;2.73;;;1.53;;
16510;SDS011;8368;48.772;8.754;2023-04-15T11:08:20;1.43;;;1.33;;
16510;SDS011;8368;48.772;8.754;2023-04-15T11:14:26;1.20;;;1.20;;
16510;SDS011;8368;48.772;8.754;2023-04-15T11:16:52;1.23;;;1.23;;
16510;SDS011;8368;48.772;8.754;2023-04-15T11:19:17;3.08;;;1.35;;
16510;SDS011;8368;48.772;8.754;2023-04-15T11:21:43;2.23;;;2.10;;
16510;SDS011;8368;48.772;8.754;2023-04-15T11:24:08;1.10;;;1.10;;
16510;SDS011;8368;48.772;8.754;2023-04-15T11:26:34;1.33;;;1.30;;
16510;SDS011;8368;48.772;8.754;2023-04-15T11:28:59;1.33;;;1.33;;
16510;SDS011;8368;48.772;8.754;2023-04-15T11:31:25;1.90;;;1.30;;
16510;SDS011;8368;48.772;8.754;2023-04-15T11:36:19;1.37;;;1.37;;
16510;SDS011;8368;48.772;8.754;2023-04-15T11:38:45;1.30;;;1.10;;
16510;SDS011;8368;48.772;8.754;2023-04-15T11:41:11;1.80;;;1.47;;
16510;SDS011;8368;48.772;8.754;2023-04-15T11:43:37;1.53;;;1.37;;
16510;SDS011;8368;48.772;8.754;2023-04-15T11:46:03;1.47;;;1.40;;
16510;SDS011;8368;48.772;8.754;2023-04-15T11:48:29;1.30;;;1.30;;
16510;SDS011;8368;48.772;8.754;2023-04-15T11:51:01;1.60;;;1.50;;
16510;SDS011;8368;48.772;8.754;2023-04-15T11:53:37;1.33;;;1.33;;
16510;SDS011;8368;48.772;8.754;2023-04-15T11:56:08;1.83;;;1.73;;
16510;SDS011;8368;48.772;8.754;2023-04-15T11:58:35;1.53;;;1.43;;
16510;SDS011;8368;48.772;8.754;2023-04-15T12:01:02;1.37;;;1.37;;
16510;SDS011;8368;48.772;8.754;2023-04-15T12:06:02;2.13;;;2.03;;
16510;SDS011;8368;48.772;8.754;2023-04-15T12:14:08;2.10;;;2.00;;
16510;SDS011;8368;48.772;8.754;2023-04-15T12:16:44;2.10;;;2.00;;
16510;SDS011;8368;48.772;8.754;2023-04-15T12:19:12;2.17;;;2.03;;
16510;SDS011;8368;48.772;8.754;2023-04-15T12:21:39;4.50;;;1.80;;
16510;SDS011;8368;48.772;8.754;2023-04-15T12:24:08;2.13;;;2.03;;
16510;SDS011;8368;48.772;8.754;2023-04-15T12:26:48;1.80;;;1.70;;
16510;SDS011;8368;48.772;8.754;2023-04-15T12:29:18;1.90;;;1.80;;
16510;SDS011;8368;48.772;8.754;2023-04-15T12:31:48;1.77;;;1.67;;
16510;SDS011;8368;48.772;8.754;2023-04-15T12:34:16;2.63;;;1.52;;
16510;SDS011;8368;48.772;8.754;2023-04-15T12:36:43;1.98;;;1.80;;
16510;SDS011;8368;48.772;8.754;2023-04-15T12:39:09;4.45;;;2.05;;
16510;SDS011;8368;48.772;8.754;2023-04-15T12:41:35;2.22;;;1.80;;
16510;SDS011;8368;48.772;8.754;2023-04-15T12:44:00;2.03;;;1.83;;
16510;SDS011;8368;48.772;8.754;2023-04-15T12:46:26;2.30;;;2.00;;
16510;SDS011;8368;48.772;8.754;2023-04-15T12:48:52;2.28;;;2.17;;
16510;SDS011;8368;48.772;8.754;2023-04-15T12:51:18;2.55;;;1.88;;
16510;SDS011;8368;48.772;8.754;2023-04-15T12:53:45;2.20;;;2.00;;
16510;SDS011;8368;48.772;8.754;2023-04-15T12:56:12;2.00;;;1.90;;
16510;SDS011;8368;48.772;8.754;2023-04-15T12:58:37;1.42;;;1.40;;
16510;SDS011;8368;48.772;8.754;2023-04-15T13:01:03;2.30;;;2.20;;
16510;SDS011;8368;48.772;8.754;2023-04-15T13:03:30;1.75;;;1.75;;
16510;SDS011;8368;48.772;8.754;2023-04-15T13:05:56;1.98;;;1.88;;
16510;SDS011;8368;48.772;8.754;2023-04-15T13:08:21;1.75;;;1.65;;
16510;SDS011;8368;48.772;8.754;2023-04-15T13:10:47;2.80;;;2.60;;
16510;SDS011;8368;48.772;8.754;2023-04-15T13:13:13;2.40;;;2.30;;
16510;SDS011;8368;48.772;8.754;2023-04-15T13:15:38;1.80;;;1.75;;
16510;SDS011;8368;48.772;8.754;2023-04-15T13:18:05;1.80;;;1.70;;
16510;SDS011;8368;48.772;8.754;2023-04-15T13:20:31;2.87;;;2.67;;
16510;SDS011;8368;48.772;8.754;2023-04-15T13:22:56;2.30;;;2.20;;
16510;SDS011;8368;48.772;8.754;2023-04-15T13:25:22;2.30;;;2.20;;
16510;SDS011;8368;48.772;8.754;2023-04-15T13:27:48;2.03;;;2.03;;
16510;SDS011;8368;48.772;8.754;2023-04-15T13:30:14;2.30;;;1.73;;
16510;SDS011;8368;48.772;8.754;2023-04-15T13:32:39;1.80;;;1.70;;
16510;SDS011;8368;48.772;8.754;2023-04-15T13:35:05;2.20;;;1.80;;
16510;SDS011;8368;48.772;8.754;2023-04-15T13:37:30;1.40;;;1.40;;
16510;SDS011;8368;48.772;8.754;2023-04-15T13:39:56;1.50;;;1.40;;
16510;SDS011;8368;48.772;8.754;2023-04-15T13:42:22;1.50;;;1.50;;
16510;SDS011;8368;48.772;8.754;2023-04-15T13:44:48;1.73;;;1.67;;
16510;SDS011;8368;48.772;8.754;2023-04-15T13:47:15;2.13;;;2.03;;
16510;SDS011;8368;48.772;8.754;2023-04-15T13:49:41;2.27;;;2.13;;
16510;SDS011;8368;48.772;8.754;2023-04-15T13:52:07;1.90;;;1.87;;
16510;SDS011;8368;48.772;8.754;2023-04-15T13:54:33;2.20;;;2.10;;
16510;SDS011;8368;48.772;8.754;2023-04-15T13:56:58;1.93;;;1.83;;
16510;SDS011;8368;48.772;8.754;2023-04-15T13:59:24;3.03;;;1.90;;
16510;SDS011;8368;48.772;8.754;2023-04-15T14:01:49;1.63;;;1.53;;
16510;SDS011;8368;48.772;8.754;2023-04-15T14:04:15;1.40;;;1.40;;
16510;SDS011;8368;48.772;8.754;2023-04-15T14:06:40;1.13;;;1.13;;
16510;SDS011;8368;48.772;8.754;2023-04-15T14:09:06;1.63;;;1.63;;
16510;SDS011;8368;48.772;8.754;2023-04-15T14:11:31;1.10;;;1.10;;
16510;SDS011;8368;48.772;8.754;2023-04-15T14:13:59;1.30;;;1.30;;
16510;SDS011;8368;48.772;8.754;2023-04-15T14:16:25;1.17;;;1.17;;
16510;SDS011;8368;48.772;8.754;2023-04-15T14:18:50;1.90;;;1.20;;
16510;SDS011;8368;48.772;8.754;2023-04-15T14:21:16;1.47;;;1.23;;
16510;SDS011;8368;48.772;8.754;2023-04-15T14:23:42;1.30;;;1.30;;
16510;SDS011;8368;48.772;8.754;2023-04-15T14:26:07;1.40;;;1.30;;
16510;SDS011;8368;48.772;8.754;2023-04-15T14:28:33;1.97;;;1.43;;
16510;SDS011;8368;48.772;8.754;2023-04-15T14:30:58;1.53;;;1.50;;
16510;SDS011;8368;48.772;8.754;2023-04-15T14:33:24;1.83;;;1.73;;
16510;SDS011;8368;48.772;8.754;2023-04-15T14:35:50;2.47;;;1.63;;
16510;SDS011;8368;48.772;8.754;2023-04-15T14:38:15;1.43;;;1.43;;
16510;SDS011;8368;48.772;8.754;2023-04-15T14:40:41;1.67;;;1.60;;
16510;SDS011;8368;48.772;8.754;2023-04-15T14:43:06;1.70;;;1.57;;
16510;SDS011;8368;48.772;8.754;2023-04-15T14:45:32;1.57;;;1.47;;
16510;SDS011;8368;48.772;8.754;2023-04-15T14:47:58;2.17;;;2.03;;
16510;SDS011;8368;48.772;8.754;2023-04-15T14:50:24;2.20;;;2.10;;
16510;SDS011;8368;48.772;8.754;2023-04-15T14:52:49;1.70;;;1.60;;
16510;SDS011;8368;48.772;8.754;2023-04-15T14:55:15;1.60;;;1.60;;
16510;SDS011;8368;48.772;8.754;2023-04-15T14:57:41;3.20;;;1.90;;
16510;SDS011;8368;48.772;8.754;2023-04-15T15:00:07;1.80;;;1.70;;
16510;SDS011;8368;48.772;8.754;2023-04-15T15:02:34;2.57;;;2.03;;
16510;SDS011;8368;48.772;8.754;2023-04-15T15:05:00;1.90;;;1.80;;
16510;SDS011;8368;48.772;8.754;2023-04-15T15:07:26;1.87;;;1.80;;
16510;SDS011;8368;48.772;8.754;2023-04-15T15:09:55;1.83;;;1.83;;
16510;SDS011;8368;48.772;8.754;2023-04-15T15:12:20;1.63;;;1.53;;